sensor_id;sensor_type;location;lat;lon;timestamp;P1;durP1;ratioP1;P2;durP2;ratioP2
60919;SDS011;59039;52.108;19.942;2022-11-15T00:00:50;114.70;;;37.90;;
60919;SDS011;59039;52.108;19.942;2022-11-15T00:03:16;118.70;;;37.90;;
60919;SDS011;59039;52.108;19.942;2022-11-15T00:05:43;116.50;;;40.20;;
60919;SDS011;59039;52.108;19.942;2022-11-15T00:08:09;118.70;;;39.60;;
60919;SDS011;59039;52.108;19.942;2022-11-15T00:10:34;111.90;;;35.60;;
60919;SDS011;59039;52.108;19.942;2022-11-15T00:12:59;109.10;;;37.90;;
60919;SDS011;59039;52.108;19.942;2022-11-15T00:15:25;116.00;;;39.10;;
60919;SDS011;59039;52.108;19.942;2022-11-15T00:17:50;111.70;;;38.50;;
60919;SDS011;59039;52.108;19.942;2022-11-15T00:20:16;117.40;;;38.40;;
60919;SDS011;59039;52.108;19.942;2022-11-15T00:22:42;128.70;;;40.70;;
60919;SDS011;59039;52.108;19.942;2022-11-15T00:25:07;123.50;;;42.70;;
60919;SDS011;59039;52.108;19.942;2022-11-15T00:27:33;115.40;;;40.20;;
60919;SDS011;59039;52.108;19.942;2022-11-15T00:29:58;114.20;;;38.00;;
60919;SDS011;59039;52.108;19.942;2022-11-15T00:32:23;113.10;;;37.90;;
60919;SDS011;59039;52.108;19.942;2022-11-15T00:34:48;117.00;;;38.00;;
60919;SDS011;59039;52.108;19.942;2022-11-15T00:37:13;99.10;;;34.70;;
60919;SDS011;59039;52.108;19.942;2022-11-15T00:39:38;109.30;;;35.30;;
60919;SDS011;59039;52.108;19.942;2022-11-15T00:42:04;106.30;;;34.70;;
60919;SDS011;59039;52.108;19.942;2022-11-15T00:44:29;105.00;;;35.70;;
60919;SDS011;59039;52.108;19.942;2022-11-15T00:46:54;112.50;;;39.40;;
60919;SDS011;59039;52.108;19.942;2022-11-15T00:49:19;115.00;;;37.10;;
60919;SDS011;59039;52.108;19.942;2022-11-15T00:51:44;110.00;;;37.20;;
60919;SDS011;59039;52.108;19.942;2022-11-15T00:54:09;113.70;;;37.20;;
60919;SDS011;59039;52.108;19.942;2022-11-15T00:56:35;116.70;;;39.80;;
60919;SDS011;59039;52.108;19.942;2022-11-15T00:59:00;111.20;;;36.90;;
60919;SDS011;59039;52.108;19.942;2022-11-15T01:01:25;104.20;;;36.90;;
60919;SDS011;59039;52.108;19.942;2022-11-15T01:03:50;115.00;;;37.00;;
60919;SDS011;59039;52.108;19.942;2022-11-15T01:06:15;115.90;;;40.10;;
60919;SDS011;59039;52.108;19.942;2022-11-15T01:08:41;122.70;;;37.80;;
60919;SDS011;59039;52.108;19.942;2022-11-15T01:11:07;108.70;;;35.90;;
60919;SDS011;59039;52.108;19.942;2022-11-15T01:13:35;98.50;;;35.30;;
60919;SDS011;59039;52.108;19.942;2022-11-15T01:16:12;107.60;;;34.50;;
60919;SDS011;59039;52.108;19.942;2022-11-15T01:18:39;109.20;;;34.70;;
60919;SDS011;59039;52.108;19.942;2022-11-15T01:21:06;108.90;;;34.80;;
60919;SDS011;59039;52.108;19.942;2022-11-15T01:23:33;114.40;;;36.80;;
60919;SDS011;59039;52.108;19.942;2022-11-15T01:26:02;105.20;;;37.10;;
60919;SDS011;59039;52.108;19.942;2022-11-15T01:28:29;101.00;;;34.30;;
60919;SDS011;59039;52.108;19.942;2022-11-15T01:30:59;115.50;;;36.30;;
60919;SDS011;59039;52.108;19.942;2022-11-15T01:33:26;115.20;;;34.60;;
60919;SDS011;59039;52.108;19.942;2022-11-15T01:35:52;118.80;;;36.00;;
60919;SDS011;59039;52.108;19.942;2022-11-15T01:38:17;115.00;;;36.10;;
60919;SDS011;59039;52.108;19.942;2022-11-15T01:40:43;104.50;;;34.50;;
60919;SDS011;59039;52.108;19.942;2022-11-15T01:43:24;103.40;;;34.60;;
60919;SDS011;59039;52.108;19.942;2022-11-15T01:46:05;107.10;;;35.30;;
60919;SDS011;59039;52.108;19.942;2022-11-15T01:48:44;117.00;;;35.30;;
60919;SDS011;59039;52.108;19.942;2022-11-15T01:51:10;109.10;;;35.80;;
60919;SDS011;59039;52.108;19.942;2022-11-15T01:53:40;100.80;;;32.60;;
60919;SDS011;59039;52.108;19.942;2022-11-15T01:56:11;109.00;;;34.20;;
60919;SDS011;59039;52.108;19.942;2022-11-15T01:58:40;109.20;;;36.90;;
60919;SDS011;59039;52.108;19.942;2022-11-15T02:01:06;109.80;;;36.40;;
60919;SDS011;59039;52.108;19.942;2022-11-15T02:03:37;106.40;;;32.70;;
60919;SDS011;59039;52.108;19.942;2022-11-15T02:06:09;106.90;;;33.30;;
60919;SDS011;59039;52.108;19.942;2022-11-15T02:08:35;98.40;;;31.20;;
60919;SDS011;59039;52.108;19.942;2022-11-15T02:11:00;101.40;;;31.30;;
60919;SDS011;59039;52.108;19.942;2022-11-15T02:13:25;90.60;;;29.50;;
60919;SDS011;59039;52.108;19.942;2022-11-15T02:15:53;97.70;;;31.50;;
60919;SDS011;59039;52.108;19.942;2022-11-15T02:18:23;94.20;;;33.50;;
60919;SDS011;59039;52.108;19.942;2022-11-15T02:26:48;102.60;;;30.30;;
60919;SDS011;59039;52.108;19.942;2022-11-15T02:32:21;98.20;;;31.70;;
60919;SDS011;59039;52.108;19.942;2022-11-15T02:35:10;110.00;;;33.60;;
60919;SDS011;59039;52.108;19.942;2022-11-15T02:37:56;106.30;;;32.90;;
60919;SDS011;59039;52.108;19.942;2022-11-15T02:43:11;101.40;;;33.40;;
60919;SDS011;59039;52.108;19.942;2022-11-15T02:45:42;114.40;;;34.70;;
60919;SDS011;59039;52.108;19.942;2022-11-15T02:48:13;99.40;;;32.80;;
60919;SDS011;59039;52.108;19.942;2022-11-15T02:50:40;93.80;;;30.00;;
60919;SDS011;59039;52.108;19.942;2022-11-15T02:53:07;92.00;;;31.10;;
60919;SDS011;59039;52.108;19.942;2022-11-15T02:55:37;97.90;;;31.30;;
60919;SDS011;59039;52.108;19.942;2022-11-15T02:58:22;97.60;;;30.80;;
60919;SDS011;59039;52.108;19.942;2022-11-15T03:09:37;103.70;;;29.60;;
60919;SDS011;59039;52.108;19.942;2022-11-15T03:12:12;98.60;;;30.30;;
60919;SDS011;59039;52.108;19.942;2022-11-15T03:14:51;88.80;;;28.60;;
60919;SDS011;59039;52.108;19.942;2022-11-15T03:17:26;97.90;;;31.20;;
60919;SDS011;59039;52.108;19.942;2022-11-15T03:19:58;100.60;;;31.90;;
60919;SDS011;59039;52.108;19.942;2022-11-15T03:22:27;94.40;;;29.40;;
60919;SDS011;59039;52.108;19.942;2022-11-15T03:24:59;87.30;;;30.80;;
60919;SDS011;59039;52.108;19.942;2022-11-15T03:27:31;102.80;;;33.00;;
60919;SDS011;59039;52.108;19.942;2022-11-15T03:30:02;92.40;;;30.70;;
60919;SDS011;59039;52.108;19.942;2022-11-15T03:32:32;98.30;;;30.30;;
60919;SDS011;59039;52.108;19.942;2022-11-15T03:35:04;95.30;;;28.80;;
60919;SDS011;59039;52.108;19.942;2022-11-15T03:40:29;82.10;;;27.80;;
60919;SDS011;59039;52.108;19.942;2022-11-15T03:43:04;82.40;;;25.50;;
60919;SDS011;59039;52.108;19.942;2022-11-15T03:45:39;79.40;;;27.20;;
60919;SDS011;59039;52.108;19.942;2022-11-15T03:48:20;81.80;;;28.30;;
60919;SDS011;59039;52.108;19.942;2022-11-15T03:50:47;80.80;;;27.10;;
60919;SDS011;59039;52.108;19.942;2022-11-15T03:53:13;89.50;;;29.00;;
60919;SDS011;59039;52.108;19.942;2022-11-15T03:55:39;99.60;;;30.40;;
60919;SDS011;59039;52.108;19.942;2022-11-15T03:58:04;87.90;;;28.50;;
60919;SDS011;59039;52.108;19.942;2022-11-15T04:00:30;93.90;;;29.80;;
60919;SDS011;59039;52.108;19.942;2022-11-15T04:02:55;92.20;;;30.80;;
60919;SDS011;59039;52.108;19.942;2022-11-15T04:05:20;103.20;;;32.50;;
60919;SDS011;59039;52.108;19.942;2022-11-15T04:07:46;100.80;;;31.20;;
60919;SDS011;59039;52.108;19.942;2022-11-15T04:10:11;88.80;;;27.70;;
60919;SDS011;59039;52.108;19.942;2022-11-15T04:12:39;90.60;;;28.30;;
60919;SDS011;59039;52.108;19.942;2022-11-15T04:17:49;86.60;;;27.90;;
60919;SDS011;59039;52.108;19.942;2022-11-15T04:20:20;102.70;;;29.20;;
60919;SDS011;59039;52.108;19.942;2022-11-15T04:22:48;91.60;;;29.50;;
60919;SDS011;59039;52.108;19.942;2022-11-15T04:25:13;98.60;;;32.30;;
60919;SDS011;59039;52.108;19.942;2022-11-15T04:27:39;96.80;;;31.60;;
60919;SDS011;59039;52.108;19.942;2022-11-15T04:30:04;109.50;;;32.90;;
60919;SDS011;59039;52.108;19.942;2022-11-15T04:32:30;102.40;;;33.90;;
60919;SDS011;59039;52.108;19.942;2022-11-15T04:34:55;102.50;;;31.30;;
60919;SDS011;59039;52.108;19.942;2022-11-15T04:37:20;102.80;;;33.10;;
60919;SDS011;59039;52.108;19.942;2022-11-15T04:39:45;101.20;;;31.40;;
60919;SDS011;59039;52.108;19.942;2022-11-15T04:42:11;103.60;;;32.10;;
60919;SDS011;59039;52.108;19.942;2022-11-15T04:44:36;95.60;;;28.90;;
60919;SDS011;59039;52.108;19.942;2022-11-15T04:47:01;103.40;;;31.30;;
60919;SDS011;59039;52.108;19.942;2022-11-15T04:49:28;91.80;;;29.40;;
60919;SDS011;59039;52.108;19.942;2022-11-15T04:51:53;88.40;;;29.10;;
60919;SDS011;59039;52.108;19.942;2022-11-15T04:54:19;76.00;;;27.20;;
60919;SDS011;59039;52.108;19.942;2022-11-15T04:56:44;91.00;;;29.80;;
60919;SDS011;59039;52.108;19.942;2022-11-15T04:59:09;95.10;;;29.70;;
60919;SDS011;59039;52.108;19.942;2022-11-15T05:01:34;82.90;;;27.50;;
60919;SDS011;59039;52.108;19.942;2022-11-15T05:03:59;84.40;;;28.10;;
60919;SDS011;59039;52.108;19.942;2022-11-15T05:06:25;86.00;;;28.30;;
60919;SDS011;59039;52.108;19.942;2022-11-15T05:08:50;77.40;;;27.30;;
60919;SDS011;59039;52.108;19.942;2022-11-15T05:11:15;82.60;;;27.40;;
60919;SDS011;59039;52.108;19.942;2022-11-15T05:13:40;86.70;;;27.10;;
60919;SDS011;59039;52.108;19.942;2022-11-15T05:16:06;72.10;;;26.60;;
60919;SDS011;59039;52.108;19.942;2022-11-15T05:18:31;85.00;;;28.10;;
60919;SDS011;59039;52.108;19.942;2022-11-15T05:21:02;83.90;;;27.60;;
60919;SDS011;59039;52.108;19.942;2022-11-15T05:23:28;71.70;;;26.50;;
60919;SDS011;59039;52.108;19.942;2022-11-15T05:25:58;79.60;;;27.80;;
60919;SDS011;59039;52.108;19.942;2022-11-15T05:28:24;79.20;;;27.20;;
60919;SDS011;59039;52.108;19.942;2022-11-15T05:30:49;78.10;;;28.00;;
60919;SDS011;59039;52.108;19.942;2022-11-15T05:33:14;91.10;;;27.60;;
60919;SDS011;59039;52.108;19.942;2022-11-15T05:35:41;86.30;;;26.70;;
60919;SDS011;59039;52.108;19.942;2022-11-15T05:38:09;83.10;;;27.90;;
60919;SDS011;59039;52.108;19.942;2022-11-15T05:40:34;89.50;;;28.00;;
60919;SDS011;59039;52.108;19.942;2022-11-15T05:43:00;98.70;;;29.90;;
60919;SDS011;59039;52.108;19.942;2022-11-15T05:45:27;76.70;;;26.80;;
60919;SDS011;59039;52.108;19.942;2022-11-15T05:47:54;86.70;;;27.30;;
60919;SDS011;59039;52.108;19.942;2022-11-15T05:50:21;84.40;;;28.50;;
60919;SDS011;59039;52.108;19.942;2022-11-15T05:52:47;84.60;;;27.50;;
60919;SDS011;59039;52.108;19.942;2022-11-15T05:55:13;71.00;;;24.50;;
60919;SDS011;59039;52.108;19.942;2022-11-15T05:57:39;75.20;;;29.00;;
60919;SDS011;59039;52.108;19.942;2022-11-15T06:00:04;80.90;;;29.80;;
60919;SDS011;59039;52.108;19.942;2022-11-15T06:02:30;80.70;;;27.90;;
60919;SDS011;59039;52.108;19.942;2022-11-15T06:04:56;82.20;;;29.20;;
60919;SDS011;59039;52.108;19.942;2022-11-15T06:07:21;76.50;;;28.20;;
60919;SDS011;59039;52.108;19.942;2022-11-15T06:09:47;88.30;;;30.70;;
60919;SDS011;59039;52.108;19.942;2022-11-15T06:12:12;90.70;;;29.20;;
60919;SDS011;59039;52.108;19.942;2022-11-15T06:14:38;87.70;;;28.30;;
60919;SDS011;59039;52.108;19.942;2022-11-15T06:17:03;85.80;;;29.30;;
60919;SDS011;59039;52.108;19.942;2022-11-15T06:19:28;79.10;;;26.60;;
60919;SDS011;59039;52.108;19.942;2022-11-15T06:21:53;84.00;;;29.20;;
60919;SDS011;59039;52.108;19.942;2022-11-15T06:24:19;87.00;;;29.50;;
60919;SDS011;59039;52.108;19.942;2022-11-15T06:26:44;87.50;;;28.60;;
60919;SDS011;59039;52.108;19.942;2022-11-15T06:29:09;80.50;;;27.50;;
60919;SDS011;59039;52.108;19.942;2022-11-15T06:31:34;83.20;;;26.90;;
60919;SDS011;59039;52.108;19.942;2022-11-15T06:33:59;75.20;;;25.80;;
60919;SDS011;59039;52.108;19.942;2022-11-15T06:36:25;87.60;;;30.60;;
60919;SDS011;59039;52.108;19.942;2022-11-15T06:38:50;77.30;;;27.10;;
60919;SDS011;59039;52.108;19.942;2022-11-15T06:41:15;101.80;;;31.40;;
60919;SDS011;59039;52.108;19.942;2022-11-15T06:43:40;93.90;;;29.50;;
60919;SDS011;59039;52.108;19.942;2022-11-15T06:46:06;78.30;;;27.00;;
60919;SDS011;59039;52.108;19.942;2022-11-15T06:48:32;83.30;;;28.50;;
60919;SDS011;59039;52.108;19.942;2022-11-15T06:50:59;87.50;;;28.90;;
60919;SDS011;59039;52.108;19.942;2022-11-15T06:53:26;84.40;;;27.60;;
60919;SDS011;59039;52.108;19.942;2022-11-15T06:55:52;76.90;;;28.10;;
60919;SDS011;59039;52.108;19.942;2022-11-15T06:58:17;84.60;;;29.30;;
60919;SDS011;59039;52.108;19.942;2022-11-15T07:00:43;80.70;;;28.70;;
60919;SDS011;59039;52.108;19.942;2022-11-15T07:03:08;84.70;;;31.90;;
60919;SDS011;59039;52.108;19.942;2022-11-15T07:05:34;84.70;;;32.30;;
60919;SDS011;59039;52.108;19.942;2022-11-15T07:07:59;81.80;;;29.70;;
60919;SDS011;59039;52.108;19.942;2022-11-15T07:10:25;94.00;;;30.50;;
60919;SDS011;59039;52.108;19.942;2022-11-15T07:12:51;73.00;;;26.90;;
60919;SDS011;59039;52.108;19.942;2022-11-15T07:15:17;78.70;;;27.30;;
60919;SDS011;59039;52.108;19.942;2022-11-15T07:17:43;81.90;;;28.70;;
60919;SDS011;59039;52.108;19.942;2022-11-15T07:20:09;76.70;;;28.60;;
60919;SDS011;59039;52.108;19.942;2022-11-15T07:22:35;85.00;;;31.00;;
60919;SDS011;59039;52.108;19.942;2022-11-15T07:25:00;87.60;;;32.40;;
60919;SDS011;59039;52.108;19.942;2022-11-15T07:27:25;97.00;;;34.80;;
60919;SDS011;59039;52.108;19.942;2022-11-15T07:29:51;97.80;;;35.80;;
60919;SDS011;59039;52.108;19.942;2022-11-15T07:32:16;86.30;;;31.00;;
60919;SDS011;59039;52.108;19.942;2022-11-15T07:34:41;75.60;;;29.00;;
60919;SDS011;59039;52.108;19.942;2022-11-15T07:37:06;83.60;;;30.00;;
60919;SDS011;59039;52.108;19.942;2022-11-15T07:39:31;82.70;;;31.10;;
60919;SDS011;59039;52.108;19.942;2022-11-15T07:41:56;77.50;;;27.20;;
60919;SDS011;59039;52.108;19.942;2022-11-15T07:44:22;85.10;;;29.80;;
60919;SDS011;59039;52.108;19.942;2022-11-15T07:46:47;80.10;;;28.30;;
60919;SDS011;59039;52.108;19.942;2022-11-15T07:49:12;80.70;;;31.00;;
60919;SDS011;59039;52.108;19.942;2022-11-15T07:51:37;82.40;;;30.50;;
60919;SDS011;59039;52.108;19.942;2022-11-15T07:54:02;93.30;;;32.30;;
60919;SDS011;59039;52.108;19.942;2022-11-15T07:56:27;94.70;;;32.90;;
60919;SDS011;59039;52.108;19.942;2022-11-15T07:58:53;99.70;;;36.10;;
60919;SDS011;59039;52.108;19.942;2022-11-15T08:01:18;101.10;;;37.50;;
60919;SDS011;59039;52.108;19.942;2022-11-15T08:03:43;96.80;;;36.20;;
60919;SDS011;59039;52.108;19.942;2022-11-15T08:06:08;95.50;;;36.20;;
60919;SDS011;59039;52.108;19.942;2022-11-15T08:08:33;92.40;;;35.80;;
60919;SDS011;59039;52.108;19.942;2022-11-15T08:10:59;109.40;;;37.40;;
60919;SDS011;59039;52.108;19.942;2022-11-15T08:13:24;87.60;;;30.70;;
60919;SDS011;59039;52.108;19.942;2022-11-15T08:15:49;83.40;;;27.90;;
60919;SDS011;59039;52.108;19.942;2022-11-15T08:18:15;82.50;;;30.10;;
60919;SDS011;59039;52.108;19.942;2022-11-15T08:20:42;76.10;;;28.90;;
60919;SDS011;59039;52.108;19.942;2022-11-15T08:23:09;76.50;;;27.10;;
60919;SDS011;59039;52.108;19.942;2022-11-15T08:25:35;85.30;;;31.60;;
60919;SDS011;59039;52.108;19.942;2022-11-15T08:28:01;147.30;;;56.90;;
60919;SDS011;59039;52.108;19.942;2022-11-15T08:30:29;143.00;;;57.80;;
60919;SDS011;59039;52.108;19.942;2022-11-15T08:32:56;160.70;;;67.60;;
60919;SDS011;59039;52.108;19.942;2022-11-15T08:35:22;176.30;;;75.50;;
60919;SDS011;59039;52.108;19.942;2022-11-15T08:37:48;138.20;;;52.30;;
60919;SDS011;59039;52.108;19.942;2022-11-15T08:40:14;96.40;;;36.40;;
60919;SDS011;59039;52.108;19.942;2022-11-15T08:42:39;92.20;;;34.30;;
60919;SDS011;59039;52.108;19.942;2022-11-15T08:45:05;83.90;;;30.50;;
60919;SDS011;59039;52.108;19.942;2022-11-15T08:47:31;79.90;;;30.90;;
60919;SDS011;59039;52.108;19.942;2022-11-15T08:49:57;87.30;;;34.60;;
60919;SDS011;59039;52.108;19.942;2022-11-15T08:52:22;90.30;;;33.90;;
60919;SDS011;59039;52.108;19.942;2022-11-15T08:54:47;88.40;;;32.30;;
60919;SDS011;59039;52.108;19.942;2022-11-15T08:57:12;82.50;;;30.90;;
60919;SDS011;59039;52.108;19.942;2022-11-15T08:59:38;90.30;;;31.70;;
60919;SDS011;59039;52.108;19.942;2022-11-15T09:02:03;83.40;;;33.00;;
60919;SDS011;59039;52.108;19.942;2022-11-15T09:04:29;91.70;;;33.40;;
60919;SDS011;59039;52.108;19.942;2022-11-15T09:06:55;103.70;;;36.80;;
60919;SDS011;59039;52.108;19.942;2022-11-15T09:09:20;96.40;;;33.90;;
60919;SDS011;59039;52.108;19.942;2022-11-15T09:11:45;89.40;;;33.30;;
60919;SDS011;59039;52.108;19.942;2022-11-15T09:14:14;79.80;;;30.30;;
60919;SDS011;59039;52.108;19.942;2022-11-15T09:16:39;91.90;;;32.70;;
60919;SDS011;59039;52.108;19.942;2022-11-15T09:19:04;81.70;;;30.80;;
60919;SDS011;59039;52.108;19.942;2022-11-15T09:21:30;82.90;;;31.50;;
60919;SDS011;59039;52.108;19.942;2022-11-15T09:23:56;65.90;;;24.30;;
60919;SDS011;59039;52.108;19.942;2022-11-15T09:26:22;80.40;;;32.30;;
60919;SDS011;59039;52.108;19.942;2022-11-15T09:28:47;80.50;;;32.40;;
60919;SDS011;59039;52.108;19.942;2022-11-15T09:31:12;90.10;;;32.00;;
60919;SDS011;59039;52.108;19.942;2022-11-15T09:33:38;93.10;;;33.50;;
60919;SDS011;59039;52.108;19.942;2022-11-15T09:36:04;87.90;;;34.00;;
60919;SDS011;59039;52.108;19.942;2022-11-15T09:38:34;88.10;;;32.40;;
60919;SDS011;59039;52.108;19.942;2022-11-15T09:41:08;85.60;;;33.60;;
60919;SDS011;59039;52.108;19.942;2022-11-15T09:49:02;77.80;;;33.10;;
60919;SDS011;59039;52.108;19.942;2022-11-15T09:51:32;95.40;;;35.90;;
60919;SDS011;59039;52.108;19.942;2022-11-15T09:59:51;103.90;;;40.50;;
60919;SDS011;59039;52.108;19.942;2022-11-15T10:05:10;83.50;;;32.50;;
60919;SDS011;59039;52.108;19.942;2022-11-15T10:08:01;75.90;;;30.70;;
60919;SDS011;59039;52.108;19.942;2022-11-15T10:13:04;77.90;;;30.10;;
60919;SDS011;59039;52.108;19.942;2022-11-15T10:15:29;79.70;;;30.50;;
60919;SDS011;59039;52.108;19.942;2022-11-15T10:21:08;81.00;;;30.80;;
60919;SDS011;59039;52.108;19.942;2022-11-15T10:23:25;79.30;;;32.70;;
60919;SDS011;59039;52.108;19.942;2022-11-15T10:25:53;90.30;;;34.50;;
60919;SDS011;59039;52.108;19.942;2022-11-15T10:28:22;87.40;;;33.70;;
60919;SDS011;59039;52.108;19.942;2022-11-15T10:30:55;85.00;;;34.30;;
60919;SDS011;59039;52.108;19.942;2022-11-15T10:33:32;85.60;;;34.80;;
60919;SDS011;59039;52.108;19.942;2022-11-15T10:38:33;97.40;;;36.80;;
60919;SDS011;59039;52.108;19.942;2022-11-15T10:41:06;103.40;;;37.00;;
60919;SDS011;59039;52.108;19.942;2022-11-15T10:43:32;90.00;;;33.50;;
60919;SDS011;59039;52.108;19.942;2022-11-15T10:45:57;93.00;;;35.10;;
60919;SDS011;59039;52.108;19.942;2022-11-15T10:48:44;83.60;;;33.70;;
60919;SDS011;59039;52.108;19.942;2022-11-15T10:51:18;89.80;;;36.30;;
60919;SDS011;59039;52.108;19.942;2022-11-15T10:53:45;84.40;;;33.20;;
60919;SDS011;59039;52.108;19.942;2022-11-15T10:56:12;85.70;;;33.70;;
60919;SDS011;59039;52.108;19.942;2022-11-15T10:58:40;77.80;;;31.20;;
60919;SDS011;59039;52.108;19.942;2022-11-15T11:01:08;99.70;;;38.00;;
60919;SDS011;59039;52.108;19.942;2022-11-15T11:03:35;103.10;;;38.30;;
60919;SDS011;59039;52.108;19.942;2022-11-15T11:08:32;88.80;;;35.30;;
60919;SDS011;59039;52.108;19.942;2022-11-15T11:10:58;90.50;;;35.60;;
60919;SDS011;59039;52.108;19.942;2022-11-15T11:13:26;90.40;;;34.80;;
60919;SDS011;59039;52.108;19.942;2022-11-15T11:24:23;81.90;;;32.60;;
60919;SDS011;59039;52.108;19.942;2022-11-15T11:27:16;86.30;;;34.20;;
60919;SDS011;59039;52.108;19.942;2022-11-15T11:32:26;83.00;;;34.20;;
60919;SDS011;59039;52.108;19.942;2022-11-15T11:35:06;82.70;;;33.20;;
60919;SDS011;59039;52.108;19.942;2022-11-15T11:37:44;86.60;;;34.80;;
60919;SDS011;59039;52.108;19.942;2022-11-15T11:49:41;80.60;;;32.90;;
60919;SDS011;59039;52.108;19.942;2022-11-15T11:52:00;88.00;;;35.20;;
60919;SDS011;59039;52.108;19.942;2022-11-15T11:54:36;87.30;;;34.40;;
60919;SDS011;59039;52.108;19.942;2022-11-15T11:57:17;82.20;;;33.00;;
60919;SDS011;59039;52.108;19.942;2022-11-15T11:59:55;92.80;;;34.40;;
60919;SDS011;59039;52.108;19.942;2022-11-15T12:02:28;79.90;;;33.20;;
60919;SDS011;59039;52.108;19.942;2022-11-15T12:07:47;89.30;;;33.40;;
60919;SDS011;59039;52.108;19.942;2022-11-15T12:10:25;89.00;;;33.50;;
60919;SDS011;59039;52.108;19.942;2022-11-15T12:13:10;94.50;;;36.50;;
60919;SDS011;59039;52.108;19.942;2022-11-15T12:15:50;93.60;;;37.80;;
60919;SDS011;59039;52.108;19.942;2022-11-15T12:18:21;85.70;;;35.40;;
60919;SDS011;59039;52.108;19.942;2022-11-15T12:20:57;95.00;;;36.10;;
60919;SDS011;59039;52.108;19.942;2022-11-15T12:23:29;84.50;;;32.90;;
60919;SDS011;59039;52.108;19.942;2022-11-15T12:26:10;88.40;;;35.20;;
60919;SDS011;59039;52.108;19.942;2022-11-15T12:33:48;101.10;;;39.10;;
60919;SDS011;59039;52.108;19.942;2022-11-15T12:38:58;95.80;;;39.70;;
60919;SDS011;59039;52.108;19.942;2022-11-15T12:41:39;107.20;;;41.60;;
60919;SDS011;59039;52.108;19.942;2022-11-15T13:00:36;113.10;;;42.30;;
60919;SDS011;59039;52.108;19.942;2022-11-15T13:02:21;113.50;;;44.00;;
60919;SDS011;59039;52.108;19.942;2022-11-15T13:04:49;112.80;;;42.60;;
60919;SDS011;59039;52.108;19.942;2022-11-15T13:10:00;110.10;;;40.80;;
60919;SDS011;59039;52.108;19.942;2022-11-15T13:14:54;95.50;;;39.30;;
60919;SDS011;59039;52.108;19.942;2022-11-15T13:19:55;116.60;;;41.70;;
60919;SDS011;59039;52.108;19.942;2022-11-15T13:22:25;118.90;;;42.90;;
60919;SDS011;59039;52.108;19.942;2022-11-15T13:24:50;110.90;;;41.80;;
60919;SDS011;59039;52.108;19.942;2022-11-15T13:27:17;107.90;;;41.20;;
60919;SDS011;59039;52.108;19.942;2022-11-15T13:29:44;110.80;;;42.20;;
60919;SDS011;59039;52.108;19.942;2022-11-15T13:32:13;112.30;;;42.30;;
60919;SDS011;59039;52.108;19.942;2022-11-15T13:34:43;102.20;;;40.70;;
60919;SDS011;59039;52.108;19.942;2022-11-15T13:39:44;86.70;;;33.60;;
60919;SDS011;59039;52.108;19.942;2022-11-15T13:42:14;117.80;;;42.70;;
60919;SDS011;59039;52.108;19.942;2022-11-15T13:44:40;114.70;;;44.30;;
60919;SDS011;59039;52.108;19.942;2022-11-15T13:47:20;119.20;;;42.90;;
60919;SDS011;59039;52.108;19.942;2022-11-15T13:49:45;121.70;;;43.50;;
60919;SDS011;59039;52.108;19.942;2022-11-15T13:52:12;100.40;;;37.70;;
60919;SDS011;59039;52.108;19.942;2022-11-15T13:59:44;106.80;;;42.10;;
60919;SDS011;59039;52.108;19.942;2022-11-15T14:02:18;115.20;;;42.40;;
60919;SDS011;59039;52.108;19.942;2022-11-15T14:04:48;107.70;;;41.50;;
60919;SDS011;59039;52.108;19.942;2022-11-15T14:07:17;122.70;;;41.30;;
60919;SDS011;59039;52.108;19.942;2022-11-15T14:09:44;131.10;;;46.40;;
60919;SDS011;59039;52.108;19.942;2022-11-15T14:12:23;125.60;;;45.00;;
60919;SDS011;59039;52.108;19.942;2022-11-15T14:14:51;110.30;;;41.10;;
60919;SDS011;59039;52.108;19.942;2022-11-15T14:17:20;117.20;;;44.70;;
60919;SDS011;59039;52.108;19.942;2022-11-15T14:19:58;135.20;;;48.00;;
60919;SDS011;59039;52.108;19.942;2022-11-15T14:22:27;118.50;;;44.20;;
60919;SDS011;59039;52.108;19.942;2022-11-15T14:30:36;112.60;;;44.10;;
60919;SDS011;59039;52.108;19.942;2022-11-15T14:33:02;131.80;;;47.70;;
60919;SDS011;59039;52.108;19.942;2022-11-15T14:35:47;128.20;;;45.10;;
60919;SDS011;59039;52.108;19.942;2022-11-15T14:38:13;112.70;;;41.90;;
60919;SDS011;59039;52.108;19.942;2022-11-15T14:40:38;130.90;;;44.50;;
60919;SDS011;59039;52.108;19.942;2022-11-15T14:43:03;126.40;;;43.70;;
60919;SDS011;59039;52.108;19.942;2022-11-15T14:45:29;115.50;;;44.00;;
60919;SDS011;59039;52.108;19.942;2022-11-15T14:47:54;123.60;;;45.90;;
60919;SDS011;59039;52.108;19.942;2022-11-15T14:50:19;119.90;;;43.90;;
60919;SDS011;59039;52.108;19.942;2022-11-15T14:52:47;127.70;;;46.00;;
60919;SDS011;59039;52.108;19.942;2022-11-15T14:55:15;108.80;;;39.50;;
60919;SDS011;59039;52.108;19.942;2022-11-15T14:57:45;126.30;;;46.60;;
60919;SDS011;59039;52.108;19.942;2022-11-15T15:00:10;123.60;;;43.80;;
60919;SDS011;59039;52.108;19.942;2022-11-15T15:02:36;142.50;;;48.90;;
60919;SDS011;59039;52.108;19.942;2022-11-15T15:05:01;105.50;;;37.80;;
60919;SDS011;59039;52.108;19.942;2022-11-15T15:07:38;122.70;;;43.40;;
60919;SDS011;59039;52.108;19.942;2022-11-15T15:10:03;121.50;;;41.60;;
60919;SDS011;59039;52.108;19.942;2022-11-15T15:12:29;114.60;;;40.80;;
60919;SDS011;59039;52.108;19.942;2022-11-15T15:14:54;125.10;;;43.30;;
60919;SDS011;59039;52.108;19.942;2022-11-15T15:17:19;125.70;;;45.80;;
60919;SDS011;59039;52.108;19.942;2022-11-15T15:19:44;123.90;;;41.70;;
60919;SDS011;59039;52.108;19.942;2022-11-15T15:22:13;125.00;;;42.40;;
60919;SDS011;59039;52.108;19.942;2022-11-15T15:24:42;133.50;;;42.80;;
60919;SDS011;59039;52.108;19.942;2022-11-15T15:27:08;117.30;;;40.60;;
60919;SDS011;59039;52.108;19.942;2022-11-15T15:29:33;118.70;;;40.30;;
60919;SDS011;59039;52.108;19.942;2022-11-15T15:31:58;136.80;;;45.40;;
60919;SDS011;59039;52.108;19.942;2022-11-15T15:34:23;146.90;;;48.90;;
60919;SDS011;59039;52.108;19.942;2022-11-15T15:36:48;124.90;;;45.60;;
60919;SDS011;59039;52.108;19.942;2022-11-15T15:39:14;130.10;;;42.50;;
60919;SDS011;59039;52.108;19.942;2022-11-15T15:41:39;122.20;;;44.30;;
60919;SDS011;59039;52.108;19.942;2022-11-15T15:44:04;141.20;;;47.20;;
60919;SDS011;59039;52.108;19.942;2022-11-15T15:46:30;129.50;;;43.30;;
60919;SDS011;59039;52.108;19.942;2022-11-15T15:48:55;140.50;;;49.10;;
60919;SDS011;59039;52.108;19.942;2022-11-15T15:51:20;135.50;;;47.50;;
60919;SDS011;59039;52.108;19.942;2022-11-15T15:53:45;126.00;;;45.40;;
60919;SDS011;59039;52.108;19.942;2022-11-15T15:56:12;115.10;;;41.40;;
60919;SDS011;59039;52.108;19.942;2022-11-15T15:58:37;131.60;;;43.00;;
60919;SDS011;59039;52.108;19.942;2022-11-15T16:01:02;123.20;;;40.60;;
60919;SDS011;59039;52.108;19.942;2022-11-15T16:03:27;133.30;;;45.80;;
60919;SDS011;59039;52.108;19.942;2022-11-15T16:05:53;122.60;;;40.30;;